Nearby METAR Reports

 

EBAW - Antwerp/Deurne, Belgium
Distance from station: ZZO 9km
Ververst: 22/04/2021 16:20
Helder
Helder
 Wind van N
Wind: N 11 km/h
Temperatuur: 12°C
Dauwpunt: 0°C
Vochtigheid: 44%
Barometer: 1026 hPa
Overzicht: Helder
Visibility: greater than 10 km
2021/04/22 14:20 EBAW 221420Z 36006KT 310V060 CAVOK 12/M00 Q1026 NOSIG
EHWO - Woensdrecht Rnla, Netherlands
Distance from station: NNW 20km
Ververst: 22/04/2021 16:25
Zwaar bewolkt
Zwaar bewolkt
 Wind van varies
Wind: varies 13 km/h
Temperatuur: 12°C
Dauwpunt: 0°C
Vochtigheid: 44%
Barometer: 1026 hPa
Clouds: Zwaar bewolkt
Visibility: 10 km
Cloud details: Zwaar bewolkt 9754 m
2021/04/22 14:25 EHWO 221425Z AUTO VRB07KT 9999 OVC320 12/00 Q1026 BLU
 
EBBR - Brussels Nationa, Belgium
Distance from station: Z 43km
Ververst: 22/04/2021 16:20
Helder
Helder
 Wind van N
Wind: N 13 km/h
Temperatuur: 12°C
Dauwpunt: 1°C
Vochtigheid: 47%
Barometer: 1026 hPa
Overzicht: Helder
Visibility: greater than 10 km
2021/04/22 14:20 EBBR 221420Z 01007KT 340V060 CAVOK 12/01 Q1026 NOSIG
EHGR - Gilze-Rijen Rnla, Netherlands
Distance from station: NO 47km
Ververst: 22/04/2021 16:25
Zwaar bewolkt
Zwaar bewolkt
 Wind van NNO
Wind: NNO 17 km/h
Temperatuur: 12°C
Dauwpunt: 2°C
Vochtigheid: 51%
Barometer: 1026 hPa
Clouds: Zwaar bewolkt
Visibility: 10 km
Cloud details: Zwaar bewolkt 9754 m
2021/04/22 14:25 EHGR 221425Z AUTO 02009KT 320V060 9999 OVC320 12/02 Q1026 BLU NOSIG
 
EBDT - Schaffen, Belgium
Distance from station: OZO 54km
Ververst: 22/04/2021 15:55
Few Clouds
Few Clouds
 Wind van N
Wind: N 11 km/h
Temperatuur: 12°C
Dauwpunt: 1°C
Vochtigheid: 47%
Barometer: 1026 hPa
Clouds: Few Clouds
Visibility: 10 km
Cloud details: Few Clouds 4267 m
2021/04/22 13:55 EBDT 221355Z AUTO 36006KT 9999 FEW140/// 12/01 Q1026 BLU
EHFS - Vlissingen, Netherlands
Distance from station: WNW 60km
Ververst: 22/04/2021 16:25
Gedeeltelijk bewolkt
Gedeeltelijk bewolkt
 Wind van N
Wind: N 22 km/h
Temperatuur: 10°C
Gevoelstemp.: 7°C
Dauwpunt: 2°C
Vochtigheid: 58%
Barometer: 1027 hPa
Clouds: Gedeeltelijk bewolkt
Visibility: 10 km
2021/04/22 14:25 EHFS 221425Z AUTO 36012KT 310V050 9999 NSC 10/02 Q1027
 
EBBE - Beauvechain (baf, Belgium
Distance from station: ZZO 64km
Ververst: 22/04/2021 15:55
Few Clouds
Few Clouds
 Wind van NNO
Wind: NNO 17 km/h
Temperatuur: 12°C
Dauwpunt: 1°C
Vochtigheid: 47%
Barometer: 1025 hPa
Clouds: Few Clouds
Visibility: 10 km
Cloud details: Few Clouds 7620 m
2021/04/22 13:55 EBBE 221355Z 03009KT 9999 FEW250 12/01 Q1025 BLU BLU
EHEH - Eindhoven Rnlafb, Netherlands
Distance from station: ONO 69km
Ververst: 22/04/2021 16:25
Zwaar bewolkt
Zwaar bewolkt
 Wind van N
Wind: N 17 km/h
Temperatuur: 12°C
Dauwpunt: 0°C
Vochtigheid: 44%
Barometer: 1026 hPa
Clouds: Zwaar bewolkt
Visibility: 10 km
Cloud details: Zwaar bewolkt 9449 m
2021/04/22 14:25 EHEH 221425Z AUTO 01009KT 290V070 9999 OVC310 12/M00 Q1026 BLU NOSIG
 
EBBL - Kleine-Brogel(Ba, Belgium
Distance from station: O 74km
Ververst: 22/04/2021 15:55
Few Clouds
Few Clouds
 Wind van NNW
Wind: NNW 11 km/h
Temperatuur: 13°C
Dauwpunt: -1°C
Vochtigheid: 38%
Barometer: 1026 hPa
Clouds: Few Clouds
Visibility: 10 km
Cloud details: Few Clouds 1372 m
2021/04/22 13:55 EBBL 221355Z 34006KT 9999 FEW045 13/M01 Q1026 BLU BLU
EHRD - Rotterdam Airpor, Netherlands
Distance from station: N 75km
Ververst: 22/04/2021 16:25
Gedeeltelijk bewolkt
Gedeeltelijk bewolkt
 Wind van N
Wind: N 15 km/h
Temperatuur: 10°C
Gevoelstemp.: 8°C
Dauwpunt: 2°C
Vochtigheid: 58%
Barometer: 1027 hPa
Clouds: Gedeeltelijk bewolkt
Visibility: 10 km
2021/04/22 14:25 EHRD 221425Z AUTO 35008KT 310V040 9999 NSC 10/02 Q1027 NOSIG
 
EHSC - Goeree Le Sea, Netherlands
Distance from station: NW 89km
Ververst: 22/04/2021 16:25

 Wind van NNO
Wind: NNO 22 km/h
Temperatuur: 7°C
Gevoelstemp.: 4°C
Dauwpunt: 1°C
Vochtigheid: 66%
Barometer: 1028 hPa
Visibility: 10 km
2021/04/22 14:25 EHSC 221425Z AUTO 02012KT 9999 ///////// 07/01 Q1028 W08/H11
EBCI - Charleroi/Gossel, Belgium
Distance from station: Z 90km
Ververst: 22/04/2021 16:20
Helder
Helder
 Wind van NO
Wind: NO 15 km/h
Temperatuur: 12°C
Dauwpunt: -1°C
Vochtigheid: 41%
Barometer: 1025 hPa
Overzicht: Helder
Visibility: greater than 10 km
2021/04/22 14:20 EBCI 221420Z 04008KT 350V070 CAVOK 12/M01 Q1025 NOSIG
 
EBCV - Chievres Ab, Belgium
Distance from station: ZZW 90km
Ververst: 22/04/2021 15:55
Helder
Helder
 Wind van NO
Wind: NO 17 km/h
Temperatuur: 12°C
Dauwpunt: -1°C
Vochtigheid: 41%
Barometer: 1025 hPa
Clouds: Helder
Visibility: 10 km
2021/04/22 13:55 EBCV 221355Z AUTO 05009KT 9999 NCD 12/M01 Q1025 BLU
EHVK - Volkel Rnlafb, Netherlands
Distance from station: ONO 97km
Ververst: 22/04/2021 16:25
Zwaar bewolkt
Zwaar bewolkt
 Wind van N
Wind: N 15 km/h
Temperatuur: 12°C
Dauwpunt: 2°C
Vochtigheid: 51%
Barometer: 1026 hPa
Clouds: Zwaar bewolkt
Visibility: 10 km
Cloud details: Zwaar bewolkt 10058 m
2021/04/22 14:25 EHVK 221425Z AUTO 01008KT 330V060 9999 OVC330 12/02 Q1026 BLU
 
EBLG - Bierset/Liege (c, Belgium
Distance from station: ZO 102km
Ververst: 22/04/2021 16:20
Helder
Helder
 Wind van NNO
Wind: NNO 15 km/h
Temperatuur: 11°C
Dauwpunt: 0°C
Vochtigheid: 47%
Barometer: 1025 hPa
Overzicht: Helder
Visibility: greater than 10 km
2021/04/22 14:20 EBLG 221420Z 03008KT 350V070 CAVOK 11/00 Q1025 NOSIG
EHBK - Zuid-Limburg/Bee, Netherlands
Distance from station: OZO 102km
Ververst: 22/04/2021 16:25
Gedeeltelijk bewolkt
Gedeeltelijk bewolkt
 Wind van NNW
Wind: NNW 15 km/h
Temperatuur: 12°C
Dauwpunt: 1°C
Vochtigheid: 47%
Barometer: 1025 hPa
Clouds: Gedeeltelijk bewolkt
Visibility: 10 km
2021/04/22 14:25 EHBK 221425Z AUTO 34008KT 310V020 9999 NSC 12/01 Q1025 NOSIG
 
EBOS - Oostende Airport, Belgium
Distance from station: W 108km
Ververst: 22/04/2021 16:20
Helder
Helder
 Wind van NNO
Wind: NNO 30 km/h
Temperatuur: 9°C
Gevoelstemp.: 5°C
Dauwpunt: 2°C
Vochtigheid: 62%
Barometer: 1028 hPa
Overzicht: Helder
Visibility: greater than 10 km
2021/04/22 14:20 EBOS 221420Z 03016KT CAVOK 09/02 Q1028 NOSIG
EHSA - Euro Platform, Netherlands
Distance from station: NW 112km
Ververst: 22/04/2021 16:25

 Wind van N
Wind: N 17 km/h
Temperatuur: 7°C
Gevoelstemp.: 4°C
Dauwpunt: 1°C
Vochtigheid: 66%
Barometer: 1028 hPa
Visibility: 10 km
2021/04/22 14:25 EHSA 221425Z AUTO 01009KT 9999 ///////// 07/01 Q1028 W08/H11
 
EHAM - Amsterdam/Schiph, Netherlands
Distance from station: NNO 118km
Ververst: 22/04/2021 16:25
Few Clouds
Few Clouds
 Wind van N
Wind: N 19 km/h
Temperatuur: 11°C
Dauwpunt: 2°C
Vochtigheid: 54%
Barometer: 1027 hPa
Clouds: Few Clouds
Visibility: 10 km
Cloud details: Few Clouds 1036 m
2021/04/22 14:25 EHAM 221425Z 36010KT 320V050 9999 FEW034 11/02 Q1027 NOSIG
ETNG - Geilenkirchen(Na, Germany
Distance from station: OZO 118km
Ververst: 22/04/2021 15:50
Few Clouds
Few Clouds
 Wind van N
Wind: N 11 km/h
Temperatuur: 12°C
Dauwpunt: 0°C
Vochtigheid: 44%
Barometer: 1026 hPa
Clouds: Few Clouds
Visibility: 10 km
Cloud details: Few Clouds 1372 m
2021/04/22 13:50 ETNG 221350Z 35006KT 9999 FEW045 12/00 Q1026 NOSIG